Weather History for KDVO - May, 2014

Change the Weather History Date:

Monday, May 5, 2014

  Actual Average (KAPC) Record (KAPC)
Temperature  
Mean Temperature 57 °F 57 °F  
Max Temperature 66 °F 71 °F 82 °F (2011)
Min Temperature 48 °F 44 °F 37 °F (2003)
Degree Days  
Heating Degree Days 8    
Month to date heating degree days  
Since 1 July heating degree days  
Cooling Degree Days 0    
Month to date cooling degree days  
Year to date cooling degree days  
Growing Degree Days 7 (Base 50)    
Moisture  
Dew Point 45 °F    
Average Humidity 62    
Maximum Humidity 94    
Minimum Humidity 46    
Precipitation  
Precipitation 0.00 in - 0.55 in (1956)
Month to date precipitation  
Year to date precipitation  
Sea Level Pressure  
Sea Level Pressure 30.00 in    
Wind  
Wind Speed 11 mph (WNW)    
Max Wind Speed 25 mph    
Max Gust Speed 36 mph    
Visibility 10 miles    
Events      
T = Trace of Precipitation, MM = Missing Value Source: NWS Daily Summary

Daily Weather History Graph

Daily Weather History Graph

Search for Another Location

Airport or City:

Trip Planner

Search our weather history database for the weather conditions in past years. The results will help you decide how hot, cold, wet, or windy it might be!

Date:

Astronomy

May. 05, 2014 Rise Set
Actual Time 6:09 AM PDT 8:05 PM PDT
Civil Twilight 5:40 AM PDT 8:34 PM PDT
Nautical Twilight 5:05 AM PDT 9:09 PM PDT
Astronomical Twilight 4:28 AM PDT 9:46 PM PDT
Moon 11:33 AM PDT (5/5) 12:52 AM PDT (5/5)
Length of Visible Light 14h 53m
Length of Day
13h 56m
Waxing Crescent, 37% of the Moon is Illuminated
May 5
Waxing Crescent
May 6
First Quarter
May 14
Full
May 21
Last Quarter
May 28
New

Hourly Weather History & Observations

Time (PDT) Temp. Dew Point Humidity Pressure Visibility Wind Dir Wind Speed Gust Speed Precip Events Conditions
12:15 AM 57.2 °F 46.4 °F 67% 30.04 in 10.0 mi West 9.2 mph - N/A   Clear
12:35 AM 57.2 °F 44.6 °F 63% 30.04 in 10.0 mi West 6.9 mph - N/A   Clear
12:55 AM 57.2 °F 44.6 °F 63% 30.04 in 10.0 mi West 9.2 mph 17.3 mph N/A   Clear
1:15 AM 57.2 °F 44.6 °F 63% 30.04 in 10.0 mi West 5.8 mph - N/A   Clear
1:35 AM 57.2 °F 44.6 °F 63% 30.04 in 10.0 mi West 6.9 mph - N/A   Clear
1:55 AM 57.2 °F 44.6 °F 63% 30.04 in 10.0 mi West 9.2 mph - N/A   Clear
2:15 AM 57.2 °F 44.6 °F 63% 30.03 in 10.0 mi West 9.2 mph - N/A   Clear
2:35 AM 57.2 °F 42.8 °F 59% 30.03 in 10.0 mi West 10.4 mph - N/A   Clear
2:55 AM 57.2 °F 44.6 °F 63% 30.02 in 10.0 mi West 10.4 mph - N/A   Clear
3:15 AM 57.2 °F 44.6 °F 63% 30.02 in 10.0 mi West 6.9 mph 17.3 mph N/A   Clear
3:35 AM 57.2 °F 44.6 °F 63% 30.02 in 10.0 mi West 6.9 mph - N/A   Clear
3:55 AM 57.2 °F 44.6 °F 63% 30.02 in 10.0 mi WNW 6.9 mph - N/A   Clear
4:15 AM 55.4 °F 44.6 °F 67% 30.02 in 10.0 mi WNW 5.8 mph - N/A   Clear
4:35 AM 51.8 °F 46.4 °F 82% 30.02 in 10.0 mi NNE 3.5 mph - N/A   Clear
4:55 AM 50.0 °F 48.2 °F 94% 30.02 in 10.0 mi Calm Calm - N/A   Clear
5:15 AM 50.0 °F 48.2 °F 94% 30.02 in 10.0 mi NW 3.5 mph - N/A   Clear
5:35 AM 55.4 °F 48.2 °F 77% 30.02 in 10.0 mi WNW 11.5 mph 18.4 mph N/A   Clear
5:55 AM 48.2 °F 46.4 °F 93% 30.02 in 10.0 mi NNE 4.6 mph - N/A   Clear
6:15 AM 48.2 °F 46.4 °F 93% 30.02 in 10.0 mi NNE 4.6 mph - N/A   Clear
6:35 AM 50.0 °F 48.2 °F 94% 30.02 in 10.0 mi West 4.6 mph - N/A   Clear
6:55 AM 48.2 °F 46.4 °F 93% 30.03 in 10.0 mi NNE 4.6 mph - N/A   Scattered Clouds
7:15 AM 50.0 °F 48.2 °F 94% 30.03 in 10.0 mi ESE 4.6 mph - N/A   Overcast
7:35 AM 51.8 °F 48.2 °F 88% 30.03 in 10.0 mi Calm Calm - N/A   Mostly Cloudy
7:55 AM 53.6 °F 48.2 °F 82% 30.03 in 10.0 mi West 8.1 mph - N/A   Partly Cloudy
8:15 AM 57.2 °F 46.4 °F 67% 30.03 in 10.0 mi West 11.5 mph - N/A   Clear
8:35 AM 59.0 °F 46.4 °F 63% 30.03 in 10.0 mi WNW 8.1 mph - N/A   Clear
8:55 AM 60.8 °F 46.4 °F 59% 30.03 in 10.0 mi WNW 10.4 mph 17.3 mph N/A   Clear
9:15 AM 60.8 °F 46.4 °F 59% 30.04 in 10.0 mi WNW 6.9 mph - N/A   Clear
9:35 AM 62.6 °F 46.4 °F 55% 30.04 in 10.0 mi NW 12.7 mph - N/A   Scattered Clouds
9:55 AM 62.6 °F 46.4 °F 55% 30.04 in 10.0 mi NW 10.4 mph 18.4 mph N/A   Partly Cloudy
10:15 AM 62.6 °F 46.4 °F 55% 30.04 in 10.0 mi NNW 10.4 mph 17.3 mph N/A   Clear
10:35 AM 64.4 °F 46.4 °F 52% 30.04 in 10.0 mi WNW 12.7 mph 19.6 mph N/A   Partly Cloudy
10:55 AM 62.6 °F 44.6 °F 52% 30.04 in 10.0 mi NW 11.5 mph 19.6 mph N/A   Mostly Cloudy
11:15 AM 64.4 °F 46.4 °F 52% 30.04 in 10.0 mi NW 12.7 mph 18.4 mph N/A   Scattered Clouds
11:35 AM 64.4 °F 46.4 °F 52% 30.04 in 10.0 mi WNW 8.1 mph - N/A   Partly Cloudy
11:55 AM 64.4 °F 46.4 °F 52% 30.04 in 10.0 mi West 11.5 mph 21.9 mph N/A   Partly Cloudy
12:15 PM 64.4 °F 46.4 °F 52% 30.03 in 10.0 mi WSW 12.7 mph 23.0 mph N/A   Partly Cloudy
12:35 PM 64.4 °F 46.4 °F 52% 30.02 in 10.0 mi West 12.7 mph 20.7 mph N/A   Partly Cloudy
12:55 PM 64.4 °F 48.2 °F 56% 30.02 in 10.0 mi West 16.1 mph - N/A   Partly Cloudy
1:15 PM 64.4 °F 48.2 °F 56% 30.02 in 10.0 mi West 12.7 mph 20.7 mph N/A   Clear
1:35 PM 64.4 °F 48.2 °F 56% 30.01 in 10.0 mi West 17.3 mph 23.0 mph N/A   Clear
1:55 PM 64.4 °F 48.2 °F 56% 30.01 in 10.0 mi WNW 16.1 mph 23.0 mph N/A   Clear
2:15 PM 66.2 °F 46.4 °F 49% 30.01 in 10.0 mi West 11.5 mph 21.9 mph N/A   Clear
2:35 PM 66.2 °F 46.4 °F 49% 30.00 in 10.0 mi West 18.4 mph 23.0 mph N/A   Clear
2:55 PM 66.2 °F 44.6 °F 46% 29.99 in 10.0 mi WNW 13.8 mph 26.5 mph N/A   Clear
3:15 PM 64.4 °F 44.6 °F 49% 29.98 in 10.0 mi West 12.7 mph 24.2 mph N/A   Clear
3:35 PM 64.4 °F 44.6 °F 49% 29.97 in 10.0 mi West 15.0 mph 23.0 mph N/A   Clear
3:55 PM 64.4 °F 44.6 °F 49% 29.97 in 10.0 mi WNW 16.1 mph 23.0 mph N/A   Clear
4:15 PM 64.4 °F 44.6 °F 49% 29.96 in 10.0 mi West 16.1 mph 20.7 mph N/A   Clear
4:35 PM 62.6 °F 44.6 °F 52% 29.96 in 10.0 mi West 19.6 mph 31.1 mph N/A   Clear
4:55 PM 62.6 °F 44.6 °F 52% 29.95 in 10.0 mi WNW 11.5 mph - N/A   Clear
5:15 PM 62.6 °F 44.6 °F 52% 29.94 in 10.0 mi West 21.9 mph 27.6 mph N/A   Clear
5:35 PM 62.6 °F 44.6 °F 52% 29.94 in 10.0 mi WNW 23.0 mph 29.9 mph N/A   Clear
5:55 PM 62.6 °F 44.6 °F 52% 29.94 in 10.0 mi West 18.4 mph 25.3 mph N/A   Clear
6:15 PM 59.0 °F 44.6 °F 59% 29.93 in 10.0 mi West 25.3 mph 35.7 mph N/A   Clear
6:35 PM 59.0 °F 44.6 °F 59% 29.93 in 10.0 mi West 21.9 mph 32.2 mph N/A   Clear
6:55 PM 59.0 °F 44.6 °F 59% 29.93 in 10.0 mi West 23.0 mph 35.7 mph N/A   Clear
7:15 PM 59.0 °F 44.6 °F 59% 29.93 in 10.0 mi West 24.2 mph 33.4 mph N/A   Clear
7:35 PM 57.2 °F 42.8 °F 59% 29.93 in 10.0 mi West 25.3 mph 33.4 mph N/A   Clear
7:55 PM 57.2 °F 42.8 °F 59% 29.93 in 10.0 mi West 23.0 mph 31.1 mph N/A   Clear
8:15 PM 57.2 °F 42.8 °F 59% 29.94 in 10.0 mi West 21.9 mph 28.8 mph N/A   Clear
8:35 PM 55.4 °F 44.6 °F 67% 29.94 in 10.0 mi West 18.4 mph 27.6 mph N/A   Clear
8:55 PM 57.2 °F 42.8 °F 59% 29.94 in 10.0 mi West 18.4 mph 24.2 mph N/A   Clear
9:15 PM 55.4 °F 42.8 °F 63% 29.95 in 10.0 mi West 16.1 mph 24.2 mph N/A   Clear
9:35 PM 55.4 °F 41.0 °F 58% 29.96 in 10.0 mi West 20.7 mph 29.9 mph N/A   Clear
10:15 PM 55.4 °F 41.0 °F 58% 29.97 in 10.0 mi WNW 12.7 mph 19.6 mph N/A   Clear
10:35 PM 55.4 °F 41.0 °F 58% 29.97 in 10.0 mi West 9.2 mph 19.6 mph N/A   Clear
10:55 PM 53.6 °F 41.0 °F 62% 29.96 in 10.0 mi WNW 16.1 mph 24.2 mph N/A   Clear
11:15 PM 53.6 °F 41.0 °F 62% 29.96 in 10.0 mi WNW 16.1 mph 20.7 mph N/A   Clear
11:35 PM 53.6 °F 41.0 °F 62% 29.96 in 10.0 mi WNW 17.3 mph 23.0 mph N/A   Clear
11:55 PM 53.6 °F 41.0 °F 62% 29.96 in 10.0 mi WNW 16.1 mph 21.9 mph N/A   Clear